sensor_id;sensor_type;location;lat;lon;timestamp;temperature;humidity
65072;DHT22;51663;52.310;17.016;2023-07-31T00:02:10;36.00;37.30
65072;DHT22;51663;52.310;17.016;2023-07-31T00:05:12;35.80;38.00
65072;DHT22;51663;52.310;17.016;2023-07-31T00:08:14;35.80;37.70
65072;DHT22;51663;52.310;17.016;2023-07-31T00:11:17;35.90;37.50
65072;DHT22;51663;52.310;17.016;2023-07-31T00:14:19;36.00;37.30
65072;DHT22;51663;52.310;17.016;2023-07-31T00:17:22;36.10;37.10
65072;DHT22;51663;52.310;17.016;2023-07-31T00:20:24;36.00;36.90
65072;DHT22;51663;52.310;17.016;2023-07-31T00:23:27;35.60;36.90
65072;DHT22;51663;52.310;17.016;2023-07-31T00:26:29;35.40;37.50
65072;DHT22;51663;52.310;17.016;2023-07-31T00:29:31;35.60;36.80
65072;DHT22;51663;52.310;17.016;2023-07-31T00:32:33;35.60;36.60
65072;DHT22;51663;52.310;17.016;2023-07-31T00:35:36;35.70;36.50
65072;DHT22;51663;52.310;17.016;2023-07-31T00:38:38;35.30;36.40
65072;DHT22;51663;52.310;17.016;2023-07-31T00:41:40;35.30;36.50
65072;DHT22;51663;52.310;17.016;2023-07-31T00:44:45;35.00;36.90
65072;DHT22;51663;52.310;17.016;2023-07-31T00:47:47;35.00;37.30
65072;DHT22;51663;52.310;17.016;2023-07-31T00:50:51;34.70;37.20
65072;DHT22;51663;52.310;17.016;2023-07-31T00:53:54;34.90;37.60
65072;DHT22;51663;52.310;17.016;2023-07-31T00:56:57;34.60;37.50
65072;DHT22;51663;52.310;17.016;2023-07-31T01:00:00;34.60;37.60
65072;DHT22;51663;52.310;17.016;2023-07-31T01:03:04;34.80;37.50
65072;DHT22;51663;52.310;17.016;2023-07-31T01:09:53;34.90;37.20
65072;DHT22;51663;52.310;17.016;2023-07-31T01:12:59;35.20;36.80
65072;DHT22;51663;52.310;17.016;2023-07-31T01:16:01;35.20;36.50
65072;DHT22;51663;52.310;17.016;2023-07-31T01:19:04;35.20;36.60
65072;DHT22;51663;52.310;17.016;2023-07-31T01:26:28;35.00;37.40
65072;DHT22;51663;52.310;17.016;2023-07-31T01:30:14;34.90;36.70
65072;DHT22;51663;52.310;17.016;2023-07-31T01:32:56;35.00;36.90
65072;DHT22;51663;52.310;17.016;2023-07-31T01:35:59;34.80;37.00
65072;DHT22;51663;52.310;17.016;2023-07-31T01:39:03;34.80;37.10
65072;DHT22;51663;52.310;17.016;2023-07-31T01:42:06;34.90;37.40
65072;DHT22;51663;52.310;17.016;2023-07-31T01:45:11;34.70;37.00
65072;DHT22;51663;52.310;17.016;2023-07-31T01:48:14;34.90;37.60
65072;DHT22;51663;52.310;17.016;2023-07-31T01:51:17;35.00;37.50
65072;DHT22;51663;52.310;17.016;2023-07-31T01:54:19;35.10;37.50
65072;DHT22;51663;52.310;17.016;2023-07-31T01:57:21;35.00;37.20
65072;DHT22;51663;52.310;17.016;2023-07-31T02:00:23;35.10;37.10
65072;DHT22;51663;52.310;17.016;2023-07-31T02:03:28;35.00;36.80
65072;DHT22;51663;52.310;17.016;2023-07-31T02:06:31;35.00;37.00
65072;DHT22;51663;52.310;17.016;2023-07-31T02:09:34;35.00;37.00
65072;DHT22;51663;52.310;17.016;2023-07-31T02:12:36;34.60;37.20
65072;DHT22;51663;52.310;17.016;2023-07-31T02:15:41;34.70;37.30
65072;DHT22;51663;52.310;17.016;2023-07-31T02:18:43;34.70;37.30
65072;DHT22;51663;52.310;17.016;2023-07-31T02:21:45;34.70;37.30
65072;DHT22;51663;52.310;17.016;2023-07-31T02:24:47;34.60;37.40
65072;DHT22;51663;52.310;17.016;2023-07-31T02:27:51;34.60;37.20
65072;DHT22;51663;52.310;17.016;2023-07-31T02:30:53;34.70;37.20
65072;DHT22;51663;52.310;17.016;2023-07-31T02:33:55;34.80;37.20
65072;DHT22;51663;52.310;17.016;2023-07-31T02:36:58;34.70;36.90
65072;DHT22;51663;52.310;17.016;2023-07-31T02:40:01;34.80;36.90
65072;DHT22;51663;52.310;17.016;2023-07-31T02:43:03;34.60;37.00
65072;DHT22;51663;52.310;17.016;2023-07-31T02:46:05;34.60;37.10
65072;DHT22;51663;52.310;17.016;2023-07-31T02:49:08;34.60;37.30
65072;DHT22;51663;52.310;17.016;2023-07-31T02:52:10;34.60;37.20
65072;DHT22;51663;52.310;17.016;2023-07-31T02:55:12;34.70;37.20
65072;DHT22;51663;52.310;17.016;2023-07-31T02:58:14;34.60;37.50
65072;DHT22;51663;52.310;17.016;2023-07-31T03:01:16;34.70;37.40
65072;DHT22;51663;52.310;17.016;2023-07-31T03:04:19;34.70;37.00
65072;DHT22;51663;52.310;17.016;2023-07-31T03:07:23;34.30;37.40
65072;DHT22;51663;52.310;17.016;2023-07-31T03:10:25;34.40;37.40
65072;DHT22;51663;52.310;17.016;2023-07-31T03:13:27;34.30;37.30
65072;DHT22;51663;52.310;17.016;2023-07-31T03:16:29;34.40;37.60
65072;DHT22;51663;52.310;17.016;2023-07-31T03:19:32;34.20;37.40
65072;DHT22;51663;52.310;17.016;2023-07-31T03:22:34;34.20;37.70
65072;DHT22;51663;52.310;17.016;2023-07-31T03:25:37;34.20;37.80
65072;DHT22;51663;52.310;17.016;2023-07-31T03:28:40;34.30;37.60
65072;DHT22;51663;52.310;17.016;2023-07-31T03:31:42;34.30;37.60
65072;DHT22;51663;52.310;17.016;2023-07-31T03:34:44;34.30;37.50
65072;DHT22;51663;52.310;17.016;2023-07-31T03:37:47;34.40;37.70
65072;DHT22;51663;52.310;17.016;2023-07-31T03:40:49;34.60;37.50
65072;DHT22;51663;52.310;17.016;2023-07-31T03:43:51;34.30;37.70
65072;DHT22;51663;52.310;17.016;2023-07-31T03:46:56;34.40;37.90
65072;DHT22;51663;52.310;17.016;2023-07-31T03:49:58;34.40;37.70
65072;DHT22;51663;52.310;17.016;2023-07-31T03:53:01;34.30;38.30
65072;DHT22;51663;52.310;17.016;2023-07-31T03:56:04;34.30;38.20
65072;DHT22;51663;52.310;17.016;2023-07-31T03:59:06;34.30;38.00
65072;DHT22;51663;52.310;17.016;2023-07-31T04:02:08;34.30;38.10
65072;DHT22;51663;52.310;17.016;2023-07-31T04:05:12;34.50;38.20
65072;DHT22;51663;52.310;17.016;2023-07-31T04:08:14;34.30;38.20
65072;DHT22;51663;52.310;17.016;2023-07-31T04:11:16;34.50;38.40
65072;DHT22;51663;52.310;17.016;2023-07-31T04:14:18;34.50;38.10
65072;DHT22;51663;52.310;17.016;2023-07-31T04:17:21;34.70;38.10
65072;DHT22;51663;52.310;17.016;2023-07-31T04:20:23;34.70;38.20
65072;DHT22;51663;52.310;17.016;2023-07-31T04:23:26;34.60;38.60
65072;DHT22;51663;52.310;17.016;2023-07-31T04:26:32;34.40;38.70
65072;DHT22;51663;52.310;17.016;2023-07-31T04:29:34;34.60;38.40
65072;DHT22;51663;52.310;17.016;2023-07-31T04:32:36;34.30;38.40
65072;DHT22;51663;52.310;17.016;2023-07-31T04:35:40;34.70;38.20
65072;DHT22;51663;52.310;17.016;2023-07-31T04:38:43;34.60;38.30
65072;DHT22;51663;52.310;17.016;2023-07-31T04:41:45;34.50;38.60
65072;DHT22;51663;52.310;17.016;2023-07-31T04:44:47;34.60;38.30
65072;DHT22;51663;52.310;17.016;2023-07-31T04:47:50;34.60;38.50
65072;DHT22;51663;52.310;17.016;2023-07-31T04:50:52;34.90;38.30
65072;DHT22;51663;52.310;17.016;2023-07-31T04:53:54;35.00;38.10
65072;DHT22;51663;52.310;17.016;2023-07-31T04:56:56;35.30;37.90
65072;DHT22;51663;52.310;17.016;2023-07-31T04:59:59;35.40;37.60
65072;DHT22;51663;52.310;17.016;2023-07-31T05:03:02;35.50;37.40
65072;DHT22;51663;52.310;17.016;2023-07-31T05:06:04;35.20;37.60
65072;DHT22;51663;52.310;17.016;2023-07-31T05:09:06;35.60;37.50
65072;DHT22;51663;52.310;17.016;2023-07-31T05:12:08;35.70;37.00
65072;DHT22;51663;52.310;17.016;2023-07-31T05:15:10;35.80;36.90
65072;DHT22;51663;52.310;17.016;2023-07-31T05:18:13;36.00;36.50
65072;DHT22;51663;52.310;17.016;2023-07-31T05:21:15;36.30;37.40
65072;DHT22;51663;52.310;17.016;2023-07-31T05:24:17;36.30;36.50
65072;DHT22;51663;52.310;17.016;2023-07-31T05:27:19;36.50;36.50
65072;DHT22;51663;52.310;17.016;2023-07-31T05:30:21;37.60;35.70
65072;DHT22;51663;52.310;17.016;2023-07-31T05:33:26;38.60;34.30
65072;DHT22;51663;52.310;17.016;2023-07-31T05:36:29;39.60;33.30
65072;DHT22;51663;52.310;17.016;2023-07-31T05:39:31;40.30;31.50
65072;DHT22;51663;52.310;17.016;2023-07-31T05:42:34;40.30;31.00
65072;DHT22;51663;52.310;17.016;2023-07-31T05:45:38;40.70;31.00
65072;DHT22;51663;52.310;17.016;2023-07-31T05:48:42;40.50;31.50
65072;DHT22;51663;52.310;17.016;2023-07-31T05:51:44;40.50;31.20
65072;DHT22;51663;52.310;17.016;2023-07-31T05:54:46;40.00;31.00
65072;DHT22;51663;52.310;17.016;2023-07-31T05:57:48;39.80;31.30
65072;DHT22;51663;52.310;17.016;2023-07-31T06:00:51;39.50;31.60
65072;DHT22;51663;52.310;17.016;2023-07-31T06:03:53;39.50;32.00
65072;DHT22;51663;52.310;17.016;2023-07-31T06:06:56;39.50;32.60
65072;DHT22;51663;52.310;17.016;2023-07-31T06:09:58;39.50;32.10
65072;DHT22;51663;52.310;17.016;2023-07-31T06:13:08;39.60;31.60
65072;DHT22;51663;52.310;17.016;2023-07-31T06:16:10;39.50;31.80
65072;DHT22;51663;52.310;17.016;2023-07-31T06:19:14;39.40;32.00
65072;DHT22;51663;52.310;17.016;2023-07-31T06:22:16;39.20;32.20
65072;DHT22;51663;52.310;17.016;2023-07-31T06:25:19;39.30;31.60
65072;DHT22;51663;52.310;17.016;2023-07-31T06:28:21;39.20;32.20
65072;DHT22;51663;52.310;17.016;2023-07-31T06:31:23;39.10;31.80
65072;DHT22;51663;52.310;17.016;2023-07-31T06:34:25;39.20;32.40
65072;DHT22;51663;52.310;17.016;2023-07-31T06:37:28;39.00;32.50
65072;DHT22;51663;52.310;17.016;2023-07-31T06:40:30;39.10;32.00
65072;DHT22;51663;52.310;17.016;2023-07-31T06:43:33;39.10;31.80
65072;DHT22;51663;52.310;17.016;2023-07-31T06:46:35;39.00;32.30
65072;DHT22;51663;52.310;17.016;2023-07-31T06:49:37;39.10;31.80
65072;DHT22;51663;52.310;17.016;2023-07-31T06:52:39;39.10;32.50
65072;DHT22;51663;52.310;17.016;2023-07-31T06:55:42;39.00;31.90
65072;DHT22;51663;52.310;17.016;2023-07-31T06:58:44;39.00;31.90
65072;DHT22;51663;52.310;17.016;2023-07-31T07:01:47;38.90;32.50
65072;DHT22;51663;52.310;17.016;2023-07-31T07:04:49;38.60;32.30
65072;DHT22;51663;52.310;17.016;2023-07-31T07:07:52;38.40;32.70
65072;DHT22;51663;52.310;17.016;2023-07-31T07:10:54;38.10;32.80
65072;DHT22;51663;52.310;17.016;2023-07-31T07:13:56;38.20;33.40
65072;DHT22;51663;52.310;17.016;2023-07-31T07:16:58;38.50;32.90
65072;DHT22;51663;52.310;17.016;2023-07-31T07:20:01;38.40;33.00
65072;DHT22;51663;52.310;17.016;2023-07-31T07:23:03;38.70;33.10
65072;DHT22;51663;52.310;17.016;2023-07-31T07:26:05;38.40;32.50
65072;DHT22;51663;52.310;17.016;2023-07-31T07:29:07;38.50;32.30
65072;DHT22;51663;52.310;17.016;2023-07-31T07:32:12;38.20;32.70
65072;DHT22;51663;52.310;17.016;2023-07-31T07:35:15;38.00;32.50
65072;DHT22;51663;52.310;17.016;2023-07-31T07:38:17;38.20;32.90
65072;DHT22;51663;52.310;17.016;2023-07-31T07:41:21;38.00;32.50
65072;DHT22;51663;52.310;17.016;2023-07-31T07:44:23;38.20;32.10
65072;DHT22;51663;52.310;17.016;2023-07-31T07:47:25;37.70;32.90
65072;DHT22;51663;52.310;17.016;2023-07-31T07:50:30;37.90;32.90
65072;DHT22;51663;52.310;17.016;2023-07-31T07:53:33;37.80;32.60
65072;DHT22;51663;52.310;17.016;2023-07-31T07:56:35;38.00;32.20
65072;DHT22;51663;52.310;17.016;2023-07-31T07:59:39;38.20;32.00
65072;DHT22;51663;52.310;17.016;2023-07-31T08:02:42;38.50;31.20
65072;DHT22;51663;52.310;17.016;2023-07-31T08:05:44;38.70;31.70
65072;DHT22;51663;52.310;17.016;2023-07-31T08:08:47;38.70;31.00
65072;DHT22;51663;52.310;17.016;2023-07-31T08:11:49;38.60;31.80
65072;DHT22;51663;52.310;17.016;2023-07-31T08:14:51;38.60;32.70
65072;DHT22;51663;52.310;17.016;2023-07-31T08:17:53;38.40;33.00
65072;DHT22;51663;52.310;17.016;2023-07-31T08:20:56;38.40;33.90
65072;DHT22;51663;52.310;17.016;2023-07-31T08:23:59;38.50;33.10
65072;DHT22;51663;52.310;17.016;2023-07-31T08:27:02;38.10;33.90
65072;DHT22;51663;52.310;17.016;2023-07-31T08:30:06;38.30;33.40
65072;DHT22;51663;52.310;17.016;2023-07-31T08:33:09;38.40;33.10
65072;DHT22;51663;52.310;17.016;2023-07-31T08:36:11;38.30;33.90
65072;DHT22;51663;52.310;17.016;2023-07-31T08:39:14;38.40;34.40
65072;DHT22;51663;52.310;17.016;2023-07-31T08:42:16;38.40;33.50
65072;DHT22;51663;52.310;17.016;2023-07-31T08:45:19;38.60;33.10
65072;DHT22;51663;52.310;17.016;2023-07-31T08:48:23;38.70;33.80
65072;DHT22;51663;52.310;17.016;2023-07-31T08:51:26;38.50;33.80
65072;DHT22;51663;52.310;17.016;2023-07-31T08:54:29;38.60;32.90
65072;DHT22;51663;52.310;17.016;2023-07-31T08:57:36;38.50;33.90
65072;DHT22;51663;52.310;17.016;2023-07-31T09:00:40;38.50;32.50
65072;DHT22;51663;52.310;17.016;2023-07-31T09:03:44;38.60;32.90
65072;DHT22;51663;52.310;17.016;2023-07-31T09:06:47;38.20;32.60
65072;DHT22;51663;52.310;17.016;2023-07-31T09:09:50;38.10;32.90
65072;DHT22;51663;52.310;17.016;2023-07-31T09:12:53;38.10;33.20
65072;DHT22;51663;52.310;17.016;2023-07-31T09:15:55;38.10;33.50
65072;DHT22;51663;52.310;17.016;2023-07-31T09:18:58;38.00;32.70
65072;DHT22;51663;52.310;17.016;2023-07-31T09:22:00;38.00;32.60
65072;DHT22;51663;52.310;17.016;2023-07-31T09:28:17;38.10;33.20
65072;DHT22;51663;52.310;17.016;2023-07-31T09:34:40;38.20;32.20
65072;DHT22;51663;52.310;17.016;2023-07-31T09:37:42;38.10;32.80
65072;DHT22;51663;52.310;17.016;2023-07-31T09:40:49;38.10;33.30
65072;DHT22;51663;52.310;17.016;2023-07-31T09:43:54;37.90;32.60
65072;DHT22;51663;52.310;17.016;2023-07-31T09:46:58;37.80;32.90
65072;DHT22;51663;52.310;17.016;2023-07-31T09:50:00;37.70;33.00
65072;DHT22;51663;52.310;17.016;2023-07-31T09:53:07;37.30;34.40
65072;DHT22;51663;52.310;17.016;2023-07-31T09:56:10;37.20;36.00
65072;DHT22;51663;52.310;17.016;2023-07-31T09:59:15;37.00;35.50
65072;DHT22;51663;52.310;17.016;2023-07-31T10:02:21;37.00;36.10
65072;DHT22;51663;52.310;17.016;2023-07-31T10:05:31;36.80;36.40
65072;DHT22;51663;52.310;17.016;2023-07-31T10:08:36;36.40;37.00
65072;DHT22;51663;52.310;17.016;2023-07-31T10:11:45;36.40;37.90
65072;DHT22;51663;52.310;17.016;2023-07-31T10:14:54;36.20;38.20
65072;DHT22;51663;52.310;17.016;2023-07-31T10:17:58;35.80;38.80
65072;DHT22;51663;52.310;17.016;2023-07-31T10:21:01;35.80;38.60
65072;DHT22;51663;52.310;17.016;2023-07-31T10:24:05;36.10;39.30
65072;DHT22;51663;52.310;17.016;2023-07-31T10:27:07;36.60;39.70
65072;DHT22;51663;52.310;17.016;2023-07-31T10:30:16;36.80;39.50
65072;DHT22;51663;52.310;17.016;2023-07-31T10:33:21;37.00;38.90
65072;DHT22;51663;52.310;17.016;2023-07-31T10:36:24;37.30;38.30
65072;DHT22;51663;52.310;17.016;2023-07-31T10:39:37;37.30;37.80
65072;DHT22;51663;52.310;17.016;2023-07-31T10:45:55;37.10;38.40
65072;DHT22;51663;52.310;17.016;2023-07-31T10:49:00;37.00;38.40
65072;DHT22;51663;52.310;17.016;2023-07-31T10:52:10;36.80;38.80
65072;DHT22;51663;52.310;17.016;2023-07-31T10:58:31;36.60;39.20
65072;DHT22;51663;52.310;17.016;2023-07-31T11:01:54;36.70;39.40
65072;DHT22;51663;52.310;17.016;2023-07-31T11:05:11;37.00;39.10
65072;DHT22;51663;52.310;17.016;2023-07-31T11:11:21;36.80;39.30
65072;DHT22;51663;52.310;17.016;2023-07-31T11:14:33;36.40;39.50
65072;DHT22;51663;52.310;17.016;2023-07-31T11:17:39;36.50;39.80
65072;DHT22;51663;52.310;17.016;2023-07-31T11:20:42;36.60;40.20
65072;DHT22;51663;52.310;17.016;2023-07-31T11:23:52;36.80;40.20
65072;DHT22;51663;52.310;17.016;2023-07-31T11:26:55;37.30;38.60
65072;DHT22;51663;52.310;17.016;2023-07-31T11:30:01;37.20;39.20
65072;DHT22;51663;52.310;17.016;2023-07-31T11:33:06;37.50;38.50
65072;DHT22;51663;52.310;17.016;2023-07-31T11:36:17;37.10;39.00
65072;DHT22;51663;52.310;17.016;2023-07-31T11:39:19;37.30;38.50
65072;DHT22;51663;52.310;17.016;2023-07-31T11:42:22;37.30;38.60
65072;DHT22;51663;52.310;17.016;2023-07-31T11:45:26;37.20;38.10
65072;DHT22;51663;52.310;17.016;2023-07-31T11:48:32;37.40;39.00
65072;DHT22;51663;52.310;17.016;2023-07-31T11:51:38;37.70;38.00
65072;DHT22;51663;52.310;17.016;2023-07-31T11:54:40;37.60;38.20
65072;DHT22;51663;52.310;17.016;2023-07-31T11:57:45;37.60;37.30
65072;DHT22;51663;52.310;17.016;2023-07-31T12:00:49;37.30;37.50
65072;DHT22;51663;52.310;17.016;2023-07-31T12:03:54;37.10;37.70
65072;DHT22;51663;52.310;17.016;2023-07-31T12:06:56;37.40;38.10
65072;DHT22;51663;52.310;17.016;2023-07-31T12:10:00;37.70;38.40
65072;DHT22;51663;52.310;17.016;2023-07-31T12:13:05;38.10;37.50
65072;DHT22;51663;52.310;17.016;2023-07-31T12:16:08;38.10;37.20
65072;DHT22;51663;52.310;17.016;2023-07-31T12:19:10;38.00;36.90
65072;DHT22;51663;52.310;17.016;2023-07-31T12:22:16;37.60;37.10
65072;DHT22;51663;52.310;17.016;2023-07-31T12:25:18;37.50;37.00
65072;DHT22;51663;52.310;17.016;2023-07-31T12:28:24;37.60;37.20
65072;DHT22;51663;52.310;17.016;2023-07-31T12:31:28;37.50;38.00
65072;DHT22;51663;52.310;17.016;2023-07-31T12:34:42;36.70;38.50
65072;DHT22;51663;52.310;17.016;2023-07-31T12:37:45;36.60;39.70
65072;DHT22;51663;52.310;17.016;2023-07-31T12:40:50;36.80;39.50
65072;DHT22;51663;52.310;17.016;2023-07-31T12:43:54;37.20;39.40
65072;DHT22;51663;52.310;17.016;2023-07-31T12:46:57;37.80;38.30
65072;DHT22;51663;52.310;17.016;2023-07-31T12:49:59;38.40;36.60
65072;DHT22;51663;52.310;17.016;2023-07-31T12:53:02;38.60;36.20
65072;DHT22;51663;52.310;17.016;2023-07-31T12:56:05;38.50;35.70
65072;DHT22;51663;52.310;17.016;2023-07-31T12:59:07;37.80;36.40
65072;DHT22;51663;52.310;17.016;2023-07-31T13:02:09;37.90;36.80
65072;DHT22;51663;52.310;17.016;2023-07-31T13:05:13;38.20;36.20
65072;DHT22;51663;52.310;17.016;2023-07-31T13:08:15;38.00;36.60
65072;DHT22;51663;52.310;17.016;2023-07-31T13:11:20;38.30;36.20
65072;DHT22;51663;52.310;17.016;2023-07-31T13:14:22;38.60;35.90
65072;DHT22;51663;52.310;17.016;2023-07-31T13:17:24;38.80;35.50
65072;DHT22;51663;52.310;17.016;2023-07-31T13:20:26;39.00;35.30
65072;DHT22;51663;52.310;17.016;2023-07-31T13:23:29;39.20;35.00
65072;DHT22;51663;52.310;17.016;2023-07-31T13:26:31;38.80;34.40
65072;DHT22;51663;52.310;17.016;2023-07-31T13:29:34;38.50;35.20
65072;DHT22;51663;52.310;17.016;2023-07-31T13:32:36;38.80;35.10
65072;DHT22;51663;52.310;17.016;2023-07-31T13:35:41;38.70;35.70
65072;DHT22;51663;52.310;17.016;2023-07-31T13:38:43;38.60;35.20
65072;DHT22;51663;52.310;17.016;2023-07-31T13:41:45;38.50;35.40
65072;DHT22;51663;52.310;17.016;2023-07-31T13:44:47;38.00;35.30
65072;DHT22;51663;52.310;17.016;2023-07-31T13:47:50;38.10;35.40
65072;DHT22;51663;52.310;17.016;2023-07-31T13:50:53;38.40;35.80
65072;DHT22;51663;52.310;17.016;2023-07-31T13:53:55;38.80;35.20
65072;DHT22;51663;52.310;17.016;2023-07-31T13:56:57;39.20;34.30
65072;DHT22;51663;52.310;17.016;2023-07-31T14:00:01;39.50;33.60
65072;DHT22;51663;52.310;17.016;2023-07-31T14:03:04;39.60;33.70
65072;DHT22;51663;52.310;17.016;2023-07-31T14:06:07;39.50;33.20
65072;DHT22;51663;52.310;17.016;2023-07-31T14:09:09;39.30;33.90
65072;DHT22;51663;52.310;17.016;2023-07-31T14:12:11;39.30;33.90
65072;DHT22;51663;52.310;17.016;2023-07-31T14:15:15;39.50;34.70
65072;DHT22;51663;52.310;17.016;2023-07-31T14:18:18;39.30;33.40
65072;DHT22;51663;52.310;17.016;2023-07-31T14:21:20;39.30;32.90
65072;DHT22;51663;52.310;17.016;2023-07-31T14:24:23;39.20;33.70
65072;DHT22;51663;52.310;17.016;2023-07-31T14:27:25;39.00;33.80
65072;DHT22;51663;52.310;17.016;2023-07-31T14:30:28;39.10;33.40
65072;DHT22;51663;52.310;17.016;2023-07-31T14:33:31;39.00;33.30
65072;DHT22;51663;52.310;17.016;2023-07-31T14:36:34;38.90;33.60
65072;DHT22;51663;52.310;17.016;2023-07-31T14:39:36;39.30;33.70
65072;DHT22;51663;52.310;17.016;2023-07-31T14:42:42;39.40;33.10
65072;DHT22;51663;52.310;17.016;2023-07-31T14:45:44;39.00;33.70
65072;DHT22;51663;52.310;17.016;2023-07-31T14:48:48;39.10;33.50
65072;DHT22;51663;52.310;17.016;2023-07-31T14:51:51;39.20;33.60
65072;DHT22;51663;52.310;17.016;2023-07-31T14:54:54;39.10;33.50
65072;DHT22;51663;52.310;17.016;2023-07-31T14:57:56;39.00;34.00
65072;DHT22;51663;52.310;17.016;2023-07-31T15:00:58;38.90;33.60
65072;DHT22;51663;52.310;17.016;2023-07-31T15:04:01;38.60;34.00
65072;DHT22;51663;52.310;17.016;2023-07-31T15:07:04;38.60;34.50
65072;DHT22;51663;52.310;17.016;2023-07-31T15:10:07;38.70;33.40
65072;DHT22;51663;52.310;17.016;2023-07-31T15:13:09;38.60;33.40
65072;DHT22;51663;52.310;17.016;2023-07-31T15:16:11;38.70;33.10
65072;DHT22;51663;52.310;17.016;2023-07-31T15:19:15;38.40;33.10
65072;DHT22;51663;52.310;17.016;2023-07-31T15:22:18;38.40;33.20
65072;DHT22;51663;52.310;17.016;2023-07-31T15:25:20;38.20;32.70
65072;DHT22;51663;52.310;17.016;2023-07-31T15:28:22;38.60;32.60
65072;DHT22;51663;52.310;17.016;2023-07-31T15:31:25;38.60;31.90
65072;DHT22;51663;52.310;17.016;2023-07-31T15:34:27;38.90;32.20
65072;DHT22;51663;52.310;17.016;2023-07-31T15:37:29;39.00;31.40
65072;DHT22;51663;52.310;17.016;2023-07-31T15:40:31;38.90;31.50
65072;DHT22;51663;52.310;17.016;2023-07-31T15:43:34;39.10;30.90
65072;DHT22;51663;52.310;17.016;2023-07-31T15:46:36;38.90;31.00
65072;DHT22;51663;52.310;17.016;2023-07-31T15:49:38;39.00;30.80
65072;DHT22;51663;52.310;17.016;2023-07-31T15:52:40;39.00;30.50
65072;DHT22;51663;52.310;17.016;2023-07-31T15:55:44;39.00;31.00
65072;DHT22;51663;52.310;17.016;2023-07-31T15:58:47;39.10;30.80
65072;DHT22;51663;52.310;17.016;2023-07-31T16:01:49;38.70;31.10
65072;DHT22;51663;52.310;17.016;2023-07-31T16:04:51;38.70;31.30
65072;DHT22;51663;52.310;17.016;2023-07-31T16:07:53;39.00;31.80
65072;DHT22;51663;52.310;17.016;2023-07-31T16:10:56;39.30;30.80
65072;DHT22;51663;52.310;17.016;2023-07-31T16:13:58;39.40;30.30
65072;DHT22;51663;52.310;17.016;2023-07-31T16:17:02;39.60;29.90
65072;DHT22;51663;52.310;17.016;2023-07-31T16:20:07;39.60;30.40
65072;DHT22;51663;52.310;17.016;2023-07-31T16:23:09;39.60;30.10
65072;DHT22;51663;52.310;17.016;2023-07-31T16:26:13;39.30;31.30
65072;DHT22;51663;52.310;17.016;2023-07-31T16:29:16;39.10;30.50
65072;DHT22;51663;52.310;17.016;2023-07-31T16:32:19;38.90;31.00
65072;DHT22;51663;52.310;17.016;2023-07-31T16:35:22;38.80;31.40
65072;DHT22;51663;52.310;17.016;2023-07-31T16:38:24;39.00;30.90
65072;DHT22;51663;52.310;17.016;2023-07-31T16:41:26;38.90;31.50
65072;DHT22;51663;52.310;17.016;2023-07-31T16:44:28;39.00;31.10
65072;DHT22;51663;52.310;17.016;2023-07-31T16:47:31;38.60;31.20
65072;DHT22;51663;52.310;17.016;2023-07-31T16:50:33;38.70;31.50
65072;DHT22;51663;52.310;17.016;2023-07-31T16:53:35;38.70;31.50
65072;DHT22;51663;52.310;17.016;2023-07-31T16:56:37;38.60;32.10
65072;DHT22;51663;52.310;17.016;2023-07-31T16:59:59;38.60;31.80
65072;DHT22;51663;52.310;17.016;2023-07-31T17:03:03;38.60;32.10
65072;DHT22;51663;52.310;17.016;2023-07-31T17:06:07;38.70;31.70
65072;DHT22;51663;52.310;17.016;2023-07-31T17:09:11;38.40;32.10
65072;DHT22;51663;52.310;17.016;2023-07-31T17:12:13;38.30;32.20
65072;DHT22;51663;52.310;17.016;2023-07-31T17:15:17;38.50;32.80
65072;DHT22;51663;52.310;17.016;2023-07-31T17:18:19;38.50;32.20
65072;DHT22;51663;52.310;17.016;2023-07-31T17:21:21;38.70;32.40
65072;DHT22;51663;52.310;17.016;2023-07-31T17:24:24;38.70;31.70
65072;DHT22;51663;52.310;17.016;2023-07-31T17:27:26;38.90;32.30
65072;DHT22;51663;52.310;17.016;2023-07-31T17:30:29;38.70;31.90
65072;DHT22;51663;52.310;17.016;2023-07-31T17:33:31;38.50;32.00
65072;DHT22;51663;52.310;17.016;2023-07-31T17:36:34;38.50;32.00
65072;DHT22;51663;52.310;17.016;2023-07-31T17:39:36;38.40;32.40
65072;DHT22;51663;52.310;17.016;2023-07-31T17:42:38;38.10;32.70
65072;DHT22;51663;52.310;17.016;2023-07-31T17:45:41;38.20;32.30
65072;DHT22;51663;52.310;17.016;2023-07-31T17:48:43;38.20;32.20
65072;DHT22;51663;52.310;17.016;2023-07-31T17:51:46;38.20;32.40
65072;DHT22;51663;52.310;17.016;2023-07-31T17:54:48;38.50;31.70
65072;DHT22;51663;52.310;17.016;2023-07-31T17:57:56;38.50;31.70
65072;DHT22;51663;52.310;17.016;2023-07-31T18:00:58;38.60;32.50
65072;DHT22;51663;52.310;17.016;2023-07-31T18:04:00;38.70;32.30
65072;DHT22;51663;52.310;17.016;2023-07-31T18:07:02;38.90;31.90
65072;DHT22;51663;52.310;17.016;2023-07-31T18:10:05;38.90;32.00
65072;DHT22;51663;52.310;17.016;2023-07-31T18:13:09;38.90;31.70
65072;DHT22;51663;52.310;17.016;2023-07-31T18:16:11;38.90;31.70
65072;DHT22;51663;52.310;17.016;2023-07-31T18:19:13;38.90;32.30
65072;DHT22;51663;52.310;17.016;2023-07-31T18:22:16;38.90;32.10
65072;DHT22;51663;52.310;17.016;2023-07-31T18:25:19;38.90;32.20
65072;DHT22;51663;52.310;17.016;2023-07-31T18:28:22;38.70;31.80
65072;DHT22;51663;52.310;17.016;2023-07-31T18:31:24;38.70;32.20
65072;DHT22;51663;52.310;17.016;2023-07-31T18:34:26;38.70;32.10
65072;DHT22;51663;52.310;17.016;2023-07-31T18:37:29;38.80;32.40
65072;DHT22;51663;52.310;17.016;2023-07-31T18:40:33;38.60;31.70
65072;DHT22;51663;52.310;17.016;2023-07-31T18:43:36;38.70;32.20
65072;DHT22;51663;52.310;17.016;2023-07-31T18:46:38;38.60;31.80
65072;DHT22;51663;52.310;17.016;2023-07-31T18:49:42;38.60;32.40
65072;DHT22;51663;52.310;17.016;2023-07-31T18:52:47;38.60;32.80
65072;DHT22;51663;52.310;17.016;2023-07-31T18:55:49;38.60;32.20
65072;DHT22;51663;52.310;17.016;2023-07-31T18:58:55;38.60;32.20
65072;DHT22;51663;52.310;17.016;2023-07-31T19:01:57;38.50;31.70
65072;DHT22;51663;52.310;17.016;2023-07-31T19:04:59;38.20;32.30
65072;DHT22;51663;52.310;17.016;2023-07-31T19:08:02;38.20;32.10
65072;DHT22;51663;52.310;17.016;2023-07-31T19:11:08;38.20;31.80
65072;DHT22;51663;52.310;17.016;2023-07-31T19:14:18;38.00;31.80
65072;DHT22;51663;52.310;17.016;2023-07-31T19:17:23;38.00;32.40
65072;DHT22;51663;52.310;17.016;2023-07-31T19:20:25;38.10;32.40
65072;DHT22;51663;52.310;17.016;2023-07-31T19:23:28;38.20;32.20